| time (UTC) | temp F | wind direction | speed MPH | gust MPH | rain 1hr in | rain 24hr in | rain mn in | humidity % | barometer mb |
| 20260509173647 | 60 | 242 | 5.0 | 6.0 | 0.00 | 0.00 | 0.00 | 75 | 1004.6 |
| 20260509173143 | 60 | 241 | 3.0 | 3.0 | 0.00 | 0.00 | 0.00 | 76 | 1004.6 |
| 20260509172640 | 60 | 241 | 3.0 | 5.0 | 0.00 | 0.00 | 0.00 | 76 | 1004.6 |
| 20260509172136 | 60 | 242 | 4.0 | 5.0 | 0.00 | 0.00 | 0.00 | 77 | 1004.6 |
| 20260509171632 | 60 | 242 | 3.0 | 6.0 | 0.00 | 0.00 | 0.00 | 77 | 1004.9 |
| 20260509171128 | 60 | 242 | 4.0 | 5.0 | 0.00 | 0.00 | 0.00 | 77 | 1004.8 |
| 20260509170625 | 60 | 241 | 4.0 | 6.0 | 0.00 | 0.00 | 0.00 | 77 | 1004.8 |
| 20260509170121 | 60 | 241 | 3.0 | 5.0 | 0.00 | 0.00 | 0.00 | 78 | 1004.9 |
| 20260509165619 | 60 | 241 | 5.0 | 6.0 | 0.00 | 0.00 | 0.00 | 78 | 1005.0 |
| 20260509165115 | 60 | 242 | 4.0 | 7.0 | 0.00 | 0.00 | 0.00 | 79 | 1004.8 |
| 20260509164611 | 60 | 242 | 6.0 | 9.0 | 0.00 | 0.00 | 0.00 | 80 | 1004.7 |
| 20260509164107 | 60 | 242 | 8.0 | 10.0 | 0.00 | 0.00 | 0.00 | 81 | 1005.0 |
| 20260509163605 | 60 | 241 | 5.0 | 6.0 | 0.00 | 0.00 | 0.00 | 81 | 1004.9 |
| 20260509163101 | 60 | 242 | 12.0 | 15.0 | 0.00 | 0.00 | 0.00 | 82 | 1005.0 |
| 20260509162558 | 60 | 242 | 5.0 | 6.0 | 0.00 | 0.00 | 0.00 | 82 | 1005.2 |
| 20260509162054 | 60 | 242 | 6.0 | 8.0 | 0.00 | 0.00 | 0.00 | 84 | 1005.0 |
| 20260509161550 | 60 | 241 | 5.0 | 6.0 | 0.00 | 0.00 | 0.00 | 84 | 1005.1 |
| 20260509161045 | 60 | 242 | 3.0 | 8.0 | 0.00 | 0.00 | 0.00 | 84 | 1005.2 |
| 20260509160541 | 60 | 242 | 5.0 | 7.0 | 0.00 | 0.00 | 0.00 | 83 | 1005.1 |
| 20260509160037 | 60 | 241 | 8.0 | 13.0 | 0.00 | 0.00 | 0.00 | 83 | 1005.3 |
| 20260509155533 | 60 | 241 | 4.0 | 6.0 | 0.00 | 0.00 | 0.00 | 83 | 1005.3 |
| 20260509155029 | 60 | 242 | 5.0 | 6.0 | 0.00 | 0.00 | 0.00 | 83 | 1005.2 |
| 20260509154526 | 60 | 241 | 4.0 | 6.0 | 0.00 | 0.00 | 0.00 | 84 | 1005.3 |
| 20260509154024 | 60 | 241 | 5.0 | 8.0 | 0.00 | 0.00 | 0.00 | 84 | 1005.2 |
| 20260509153520 | 60 | 241 | 6.0 | 9.0 | 0.00 | 0.00 | 0.00 | 84 | 1005.2 |
| 20260509153017 | 60 | 241 | 7.0 | 8.0 | 0.00 | 0.00 | 0.00 | 84 | 1005.3 |
| 20260509152513 | 60 | 242 | 8.0 | 13.0 | 0.00 | 0.00 | 0.00 | 83 | 1005.3 |
| 20260509152009 | 60 | 241 | 4.0 | 5.0 | 0.00 | 0.00 | 0.00 | 83 | 1005.3 |
| 20260509151506 | 60 | 241 | 3.0 | 6.0 | 0.00 | 0.00 | 0.00 | 83 | 1005.2 |
| 20260509151005 | 60 | 241 | 4.0 | 6.0 | 0.00 | 0.00 | 0.00 | 82 | 1005.5 |
| 20260509150501 | 61 | 241 | 3.0 | 5.0 | 0.00 | 0.00 | 0.00 | 82 | 1005.3 |
| 20260509150000 | 61 | 241 | 6.0 | 8.0 | 0.00 | 0.00 | 0.00 | 81 | 1005.5 |
| 20260509145455 | 61 | 241 | 3.0 | 5.0 | 0.00 | 0.00 | 0.00 | 81 | 1005.3 |
| 20260509144950 | 61 | 241 | 5.0 | 6.0 | 0.00 | 0.00 | 0.00 | 81 | 1005.5 |
| 20260509144448 | 61 | 241 | 3.0 | 5.0 | 0.00 | 0.00 | 0.00 | 81 | 1005.5 |
| 20260509143945 | 61 | 241 | 8.0 | 10.0 | 0.00 | 0.00 | 0.00 | 80 | 1005.5 |
| 20260509143441 | 61 | 241 | 6.0 | 11.0 | 0.00 | 0.00 | 0.00 | 80 | 1005.4 |
| 20260509142938 | 61 | 241 | 5.0 | 8.0 | 0.00 | 0.00 | 0.00 | 79 | 1005.3 |
| 20260509142434 | 62 | 241 | 4.0 | 5.0 | 0.00 | 0.00 | 0.00 | 78 | 1005.5 |
| 20260509141930 | 62 | 241 | 3.0 | 6.0 | 0.00 | 0.00 | 0.00 | 77 | 1005.5 |
| 20260509141427 | 62 | 241 | 4.0 | 5.0 | 0.00 | 0.00 | 0.00 | 77 | 1005.3 |
| 20260509140924 | 62 | 241 | 8.0 | 9.0 | 0.00 | 0.00 | 0.00 | 76 | 1005.3 |
| 20260509140420 | 62 | 242 | 5.0 | 7.0 | 0.00 | 0.00 | 0.00 | 75 | 1005.5 |
| 20260509135919 | 63 | 241 | 6.0 | 7.0 | 0.00 | 0.00 | 0.00 | 75 | 1005.6 |
| 20260509135416 | 63 | 242 | 1.0 | 2.0 | 0.00 | 0.00 | 0.00 | 74 | 1005.4 |
| 20260509134913 | 63 | 242 | 6.0 | 8.0 | 0.00 | 0.00 | 0.00 | 73 | 1005.4 |
| 20260509134411 | 64 | 242 | 5.0 | 8.0 | 0.00 | 0.00 | 0.00 | 71 | 1005.4 |
| 20260509133907 | 64 | 242 | 5.0 | 7.0 | 0.00 | 0.00 | 0.00 | 71 | 1005.5 |
| 20260509133404 | 64 | 242 | 7.0 | 8.0 | 0.00 | 0.00 | 0.00 | 70 | 1005.6 |
| 20260509132902 | 64 | 242 | 6.0 | 10.0 | 0.00 | 0.00 | 0.00 | 70 | 1005.6 |
| 20260509132400 | 64 | 242 | 9.0 | 11.0 | 0.00 | 0.00 | 0.00 | 68 | 1005.8 |
| 20260509131857 | 65 | 242 | 9.0 | 11.0 | 0.00 | 0.00 | 0.00 | 67 | 1005.3 |
| 20260509131354 | 66 | 242 | 5.0 | 7.0 | 0.00 | 0.00 | 0.00 | 67 | 1005.6 |
| 20260509130851 | 66 | 242 | 4.0 | 5.0 | 0.00 | 0.00 | 0.00 | 68 | 1005.6 |
| 20260509130346 | 65 | 242 | 4.0 | 6.0 | 0.00 | 0.00 | 0.00 | 68 | 1005.9 |
| 20260509125843 | 65 | 242 | 6.0 | 8.0 | 0.00 | 0.00 | 0.00 | 69 | 1005.7 |
| 20260509125339 | 66 | 242 | 3.0 | 6.0 | 0.00 | 0.00 | 0.00 | 68 | 1005.7 |
| 20260509124836 | 65 | 242 | 3.0 | 3.0 | 0.00 | 0.00 | 0.00 | 70 | 1006.0 |
| 20260509124333 | 65 | 242 | 4.0 | 7.0 | 0.00 | 0.00 | 0.00 | 71 | 1006.2 |
| 20260509123831 | 65 | 242 | 3.0 | 7.0 | 0.00 | 0.00 | 0.00 | 71 | 1006.3 |
| 20260509123328 | 65 | 242 | 6.0 | 8.0 | 0.00 | 0.00 | 0.00 | 71 | 1006.4 |
| 20260509122823 | 65 | 242 | 7.0 | 10.0 | 0.00 | 0.00 | 0.00 | 70 | 1006.5 |
| 20260509122320 | 65 | 242 | 5.0 | 6.0 | 0.00 | 0.00 | 0.00 | 70 | 1006.6 |
| 20260509121817 | 66 | 242 | 3.0 | 6.0 | 0.00 | 0.00 | 0.00 | 67 | 1006.8 |
| 20260509121314 | 66 | 242 | 9.0 | 11.0 | 0.00 | 0.00 | 0.00 | 62 | 1007.0 |
| 20260509120813 | 65 | 242 | 6.0 | 10.0 | 0.00 | 0.00 | 0.00 | 62 | 1006.9 |
| 20260509120310 | 66 | 242 | 7.0 | 8.0 | 0.00 | 0.00 | 0.00 | 59 | 1007.1 |
| 20260509115808 | 65 | 242 | 3.0 | 3.0 | 0.00 | 0.00 | 0.00 | 68 | 1007.2 |
| 20260509115307 | 64 | 242 | 4.0 | 7.0 | 0.00 | 0.00 | 0.00 | 69 | 1007.4 |
| 20260509114803 | 65 | 242 | 6.0 | 8.0 | 0.00 | 0.00 | 0.00 | 69 | 1007.3 |
| 20260509114302 | 65 | 242 | 7.0 | 10.0 | 0.00 | 0.00 | 0.00 | 67 | 1007.4 |
| 20260509113800 | 67 | 242 | 5.0 | 7.0 | 0.00 | 0.00 | 0.00 | 64 | 1007.6 |
| 20260509113256 | 68 | 242 | 4.0 | 6.0 | 0.00 | 0.00 | 0.00 | 60 | 1007.4 |
| 20260509112753 | 68 | 242 | 5.0 | 8.0 | 0.00 | 0.00 | 0.00 | 59 | 1007.6 |
| 20260509112251 | 68 | 242 | 1.0 | 1.0 | 0.00 | 0.00 | 0.00 | 60 | 1007.9 |
| 20260509111747 | 68 | 242 | 2.0 | 2.0 | 0.00 | 0.00 | 0.00 | 61 | 1008.2 |
| 20260509111244 | 66 | 242 | 5.0 | 7.0 | 0.00 | 0.00 | 0.00 | 62 | 1008.0 |
| 20260509110742 | 66 | 242 | 7.0 | 8.0 | 0.00 | 0.00 | 0.00 | 62 | 1008.2 |
| 20260509110238 | 67 | 242 | 5.0 | 8.0 | 0.00 | 0.00 | 0.00 | 62 | 1008.2 |
| 20260509105736 | 67 | 242 | 3.0 | 3.0 | 0.00 | 0.00 | 0.00 | 63 | 1008.3 |
| 20260509105234 | 67 | 242 | 7.0 | 9.0 | 0.00 | 0.00 | 0.00 | 65 | 1008.5 |
| 20260509104730 | 67 | 242 | 3.0 | 5.0 | 0.00 | 0.00 | 0.00 | 65 | 1008.5 |
| 20260509104227 | 67 | 242 | 6.0 | 8.0 | 0.00 | 0.00 | 0.00 | 62 | 1008.3 |
| 20260509103726 | 66 | 242 | 2.0 | 5.0 | 0.00 | 0.00 | 0.00 | 66 | 1008.5 |
| 20260509103222 | 66 | 242 | 2.0 | 3.0 | 0.00 | 0.00 | 0.00 | 67 | 1008.5 |
| 20260509102721 | 66 | 242 | 4.0 | 5.0 | 0.00 | 0.00 | 0.00 | 67 | 1008.8 |
| 20260509102217 | 67 | 242 | 11.0 | 14.0 | 0.00 | 0.00 | 0.00 | 66 | 1008.5 |
| 20260509101714 | 65 | 242 | 0.0 | 1.0 | 0.00 | 0.00 | 0.00 | 68 | 1008.9 |
| 20260509101210 | 65 | 242 | 1.0 | 1.0 | 0.00 | 0.00 | 0.00 | 69 | 1009.0 |
| 20260509100708 | 65 | 242 | 5.0 | 6.0 | 0.00 | 0.00 | 0.00 | 70 | 1008.9 |
| 20260509100205 | 65 | 242 | 3.0 | 5.0 | 0.00 | 0.00 | 0.00 | 70 | 1008.8 |
| 20260509095702 | 65 | 242 | 6.0 | 10.0 | 0.00 | 0.00 | 0.00 | 69 | 1009.0 |
| 20260509095159 | 65 | 242 | 4.0 | 6.0 | 0.00 | 0.00 | 0.00 | 71 | 1009.4 |
| 20260509094655 | 65 | 242 | 3.0 | 6.0 | 0.00 | 0.00 | 0.00 | 70 | 1009.1 |
| 20260509094152 | 64 | 242 | 3.0 | 7.0 | 0.00 | 0.00 | 0.00 | 72 | 1009.2 |
| 20260509093650 | 64 | 242 | 5.0 | 8.0 | 0.00 | 0.00 | 0.00 | 73 | 1009.2 |
| 20260509093147 | 65 | 242 | 1.0 | 2.0 | 0.00 | 0.00 | 0.00 | 73 | 1009.3 |
| 20260509092645 | 64 | 241 | 3.0 | 3.0 | 0.00 | 0.00 | 0.00 | 73 | 1009.6 |
| 20260509092144 | 64 | 241 | 5.0 | 7.0 | 0.00 | 0.00 | 0.00 | 74 | 1009.7 |
| 20260509091641 | 64 | 241 | 3.0 | 5.0 | 0.00 | 0.00 | 0.00 | 76 | 1009.8 |
| 20260509091137 | 64 | 99 | 2.0 | 3.0 | 0.00 | 0.00 | 0.00 | 75 | 1009.9 |
| 20260509090635 | 64 | 101 | 3.0 | 5.0 | 0.00 | 0.00 | 0.00 | 76 | 1010.1 |
| 20260509090132 | 64 | 110 | 3.0 | 3.0 | 0.00 | 0.00 | 0.00 | 77 | 1010.2 |
| 20260509085629 | 63 | 110 | 5.0 | 6.0 | 0.00 | 0.00 | 0.00 | 78 | 1010.0 |
| 20260509085125 | 63 | 111 | 0.0 | 2.0 | 0.00 | 0.00 | 0.00 | 80 | 1010.0 |
| 20260509084623 | 63 | 112 | 5.0 | 6.0 | 0.00 | 0.00 | 0.00 | 80 | 1010.3 |
| 20260509084120 | 62 | 112 | 1.0 | 3.0 | 0.00 | 0.00 | 0.00 | 81 | 1010.2 |
| 20260509083617 | 62 | 113 | 6.0 | 9.0 | 0.00 | 0.00 | 0.00 | 81 | 1010.4 |
| 20260509083113 | 62 | 115 | 3.0 | 6.0 | 0.00 | 0.00 | 0.00 | 82 | 1010.4 |
| 20260509082611 | 62 | 139 | 3.0 | 5.0 | 0.00 | 0.00 | 0.00 | 82 | 1010.6 |
| 20260509082107 | 62 | 140 | 3.0 | 5.0 | 0.00 | 0.00 | 0.00 | 82 | 1010.7 |
| 20260509081605 | 61 | 143 | 3.0 | 5.0 | 0.00 | 0.00 | 0.00 | 82 | 1010.8 |
| 20260509081101 | 61 | 143 | 3.0 | 3.0 | 0.00 | 0.00 | 0.00 | 83 | 1010.7 |
| 20260509080600 | 60 | 144 | 5.0 | 7.0 | 0.00 | 0.00 | 0.00 | 83 | 1010.7 |
| 20260509080058 | 60 | 145 | 5.0 | 5.0 | 0.00 | 0.00 | 0.00 | 85 | 1010.8 |
| 20260509075555 | 59 | 145 | 3.0 | 5.0 | 0.00 | 0.00 | 0.00 | 85 | 1011.0 |
| 20260509075053 | 59 | 147 | 3.0 | 6.0 | 0.00 | 0.00 | 0.00 | 85 | 1011.0 |
| 20260509074549 | 59 | 147 | 4.0 | 5.0 | 0.00 | 0.00 | 0.00 | 85 | 1010.8 |
| 20260509074046 | 58 | 156 | 3.0 | 5.0 | 0.00 | 0.00 | 0.00 | 87 | 1011.1 |
| 20260509073542 | 58 | 168 | 4.0 | 5.0 | 0.00 | 0.00 | 0.00 | 88 | 1011.1 |
| 20260509073039 | 57 | 162 | 3.0 | 3.0 | 0.00 | 0.00 | 0.00 | 89 | 1011.2 |
| 20260509072535 | 56 | 163 | 3.0 | 3.0 | 0.00 | 0.00 | 0.00 | 90 | 1011.0 |
| 20260509072032 | 56 | 167 | 3.0 | 3.0 | 0.00 | 0.00 | 0.00 | 90 | 1011.3 |
| 20260509071529 | 56 | 167 | 3.0 | 3.0 | 0.00 | 0.00 | 0.00 | 90 | 1011.3 |
| 20260509071027 | 55 | 167 | 3.0 | 3.0 | 0.00 | 0.00 | 0.00 | 91 | 1011.1 |
| 20260509070524 | 55 | 168 | 3.0 | 5.0 | 0.00 | 0.00 | 0.00 | 91 | 1011.2 |
| 20260509070020 | 55 | 168 | 4.0 | 5.0 | 0.00 | 0.00 | 0.00 | 92 | 1011.1 |
| 20260509065515 | 54 | 171 | 1.0 | 2.0 | 0.00 | 0.00 | 0.00 | 93 | 1011.1 |
| 20260509065012 | 53 | 170 | 2.0 | 2.0 | 0.00 | 0.00 | 0.00 | 94 | 1011.1 |
| 20260509064510 | 53 | 169 | 3.0 | 5.0 | 0.00 | 0.00 | 0.00 | 95 | 1011.3 |
| 20260509064008 | 52 | 169 | 3.0 | 3.0 | 0.00 | 0.00 | 0.00 | 95 | 1011.1 |
| 20260509063503 | 51 | 170 | 2.0 | 2.0 | 0.00 | 0.00 | 0.00 | 96 | 1011.0 |
| 20260509063000 | 51 | 173 | 2.0 | 2.0 | 0.00 | 0.00 | 0.00 | 96 | 1010.9 |
| 20260509062457 | 50 | 171 | 3.0 | 3.0 | 0.00 | 0.00 | 0.00 | 96 | 1011.1 |
| 20260509061955 | 50 | 172 | 1.0 | 1.0 | 0.00 | 0.00 | 0.00 | 96 | 1011.1 |
| 20260509061452 | 49 | 172 | 2.0 | 2.0 | 0.00 | 0.00 | 0.00 | 96 | 1011.1 |
| 20260509060949 | 49 | 173 | 2.0 | 2.0 | 0.00 | 0.00 | 0.00 | 96 | 1011.2 |
| 20260509060446 | 49 | 172 | 0.0 | 0.0 | 0.00 | 0.00 | 0.00 | 96 | 1011.1 |
| 20260509055942 | 48 | 173 | 0.0 | 0.0 | 0.00 | 0.00 | 0.00 | 96 | 1011.0 |
| 20260509055437 | 48 | 173 | 0.0 | 0.0 | 0.00 | 0.00 | 0.00 | 96 | 1010.9 |
| 20260509054934 | 48 | 173 | 0.0 | 0.0 | 0.00 | 0.00 | 0.00 | 96 | 1011.1 |
| 20260509054431 | 48 | 173 | 0.0 | 0.0 | 0.00 | 0.00 | 0.00 | 96 | 1011.4 |
| 20260509053929 | 48 | 173 | 1.0 | 1.0 | 0.00 | 0.00 | 0.00 | 96 | 1011.1 |
| 20260509053426 | 48 | 172 | 0.0 | 0.0 | 0.00 | 0.00 | 0.00 | 96 | 1011.2 |
| 20260509052924 | 48 | 172 | 1.0 | 1.0 | 0.00 | 0.00 | 0.00 | 96 | 1011.3 |
| 20260509052421 | 48 | 172 | 0.0 | 0.0 | 0.00 | 0.00 | 0.00 | 96 | 1011.3 |
| 20260509051919 | 48 | 172 | 0.0 | 0.0 | 0.00 | 0.00 | 0.00 | 96 | 1011.4 |
| 20260509051417 | 48 | 172 | 0.0 | 0.0 | 0.00 | 0.00 | 0.00 | 96 | 1011.2 |
| 20260509050913 | 47 | 172 | 0.0 | 0.0 | 0.00 | 0.00 | 0.00 | 96 | 1011.6 |
| 20260509050410 | 47 | 172 | 0.0 | 0.0 | 0.00 | 0.00 | 0.00 | 96 | 1011.2 |
| 20260509045907 | 47 | 172 | 0.0 | 0.0 | 0.00 | 0.00 | 0.00 | 96 | 1011.4 |
| 20260509045404 | 48 | 172 | 0.0 | 0.0 | 0.00 | 0.00 | 0.00 | 96 | 1011.3 |
| 20260509044901 | 48 | 172 | 0.0 | 0.0 | 0.00 | 0.00 | 0.00 | 96 | 1011.3 |
| 20260509044358 | 48 | 172 | 0.0 | 0.0 | 0.00 | 0.00 | 0.00 | 96 | 1011.4 |
| 20260509043855 | 48 | 172 | 0.0 | 0.0 | 0.00 | 0.00 | 0.00 | 96 | 1011.3 |
| 20260509043351 | 48 | 172 | 0.0 | 0.0 | 0.00 | 0.00 | 0.00 | 96 | 1011.7 |
| 20260509042847 | 48 | 172 | 0.0 | 0.0 | 0.00 | 0.00 | 0.00 | 96 | 1011.3 |
| 20260509042343 | 48 | 172 | 0.0 | 0.0 | 0.00 | 0.00 | 0.00 | 96 | 1011.4 |
| 20260509041840 | 48 | 172 | 0.0 | 0.0 | 0.00 | 0.00 | 0.00 | 96 | 1011.6 |
| 20260509041337 | 48 | 172 | 0.0 | 0.0 | 0.00 | 0.00 | 0.00 | 96 | 1011.6 |
| 20260509040836 | 48 | 172 | 0.0 | 0.0 | 0.00 | 0.00 | 0.00 | 96 | 1011.4 |
| 20260509040333 | 48 | 172 | 0.0 | 0.0 | 0.00 | 0.00 | 0.00 | 96 | 1011.3 |
| 20260509035829 | 48 | 172 | 0.0 | 0.0 | 0.00 | 0.00 | 0.00 | 96 | 1011.5 |
| 20260509035327 | 49 | 172 | 0.0 | 0.0 | 0.00 | 0.00 | 0.00 | 96 | 1011.4 |
| 20260509034823 | 49 | 172 | 0.0 | 0.0 | 0.00 | 0.00 | 0.00 | 96 | 1011.6 |
| 20260509034321 | 48 | 172 | 0.0 | 0.0 | 0.00 | 0.00 | 0.00 | 96 | 1011.6 |
| 20260509033817 | 49 | 172 | 0.0 | 0.0 | 0.00 | 0.00 | 0.00 | 96 | 1011.6 |
| 20260509033315 | 49 | 172 | 0.0 | 0.0 | 0.00 | 0.00 | 0.00 | 96 | 1011.7 |
| 20260509032811 | 49 | 173 | 0.0 | 0.0 | 0.00 | 0.00 | 0.00 | 96 | 1011.8 |
| 20260509032308 | 49 | 172 | 0.0 | 0.0 | 0.00 | 0.00 | 0.00 | 96 | 1011.7 |
| 20260509031806 | 49 | 172 | 0.0 | 0.0 | 0.00 | 0.00 | 0.00 | 96 | 1011.7 |
| 20260509031303 | 50 | 172 | 0.0 | 0.0 | 0.00 | 0.00 | 0.00 | 96 | 1011.7 |
| 20260509030801 | 49 | 172 | 1.0 | 1.0 | 0.00 | 0.00 | 0.00 | 96 | 1011.9 |
| 20260509030259 | 49 | 173 | 0.0 | 0.0 | 0.00 | 0.00 | 0.00 | 96 | 1011.7 |
| 20260509025755 | 50 | 172 | 1.0 | 1.0 | 0.00 | 0.00 | 0.00 | 96 | 1011.8 |
| 20260509025250 | 50 | 172 | 0.0 | 0.0 | 0.00 | 0.00 | 0.00 | 96 | 1011.8 |
| 20260509024746 | 50 | 172 | 1.0 | 1.0 | 0.00 | 0.00 | 0.00 | 96 | 1011.9 |
| 20260509024243 | 50 | 173 | 0.0 | 0.0 | 0.00 | 0.00 | 0.00 | 96 | 1012.0 |
| 20260509023740 | 50 | 172 | 0.0 | 1.0 | 0.00 | 0.00 | 0.00 | 96 | 1012.2 |
| 20260509023237 | 50 | 172 | 0.0 | 0.0 | 0.00 | 0.00 | 0.00 | 95 | 1011.9 |
| 20260509022733 | 50 | 172 | 1.0 | 1.0 | 0.00 | 0.00 | 0.00 | 96 | 1012.4 |
| 20260509022231 | 50 | 172 | 0.0 | 0.0 | 0.00 | 0.00 | 0.00 | 95 | 1012.1 |
| 20260509021728 | 50 | 172 | 1.0 | 1.0 | 0.00 | 0.00 | 0.00 | 96 | 1012.4 |
| 20260509021225 | 50 | 172 | 0.0 | 0.0 | 0.00 | 0.00 | 0.00 | 96 | 1012.4 |
| 20260509020723 | 50 | 172 | 1.0 | 1.0 | 0.00 | 0.00 | 0.00 | 96 | 1012.2 |
| 20260509020220 | 50 | 172 | 1.0 | 2.0 | 0.00 | 0.00 | 0.00 | 96 | 1012.3 |
| 20260509015718 | 50 | 172 | 0.0 | 0.0 | 0.00 | 0.00 | 0.00 | 96 | 1012.3 |
| 20260509015216 | 50 | 172 | 0.0 | 0.0 | 0.00 | 0.00 | 0.00 | 96 | 1012.6 |
| 20260509014712 | 50 | 173 | 0.0 | 0.0 | 0.00 | 0.00 | 0.00 | 96 | 1012.4 |
| 20260509014209 | 50 | 173 | 0.0 | 0.0 | 0.00 | 0.00 | 0.00 | 96 | 1012.7 |
| 20260509013706 | 50 | 173 | 0.0 | 0.0 | 0.00 | 0.00 | 0.00 | 96 | 1012.8 |
| 20260509013201 | 50 | 173 | 0.0 | 0.0 | 0.00 | 0.00 | 0.00 | 96 | 1012.9 |
| 20260509012658 | 50 | 173 | 0.0 | 0.0 | 0.00 | 0.00 | 0.00 | 96 | 1012.7 |
| 20260509012155 | 50 | 173 | 0.0 | 0.0 | 0.00 | 0.00 | 0.00 | 96 | 1012.9 |
| 20260509011653 | 51 | 173 | 0.0 | 0.0 | 0.00 | 0.00 | 0.00 | 96 | 1012.7 |
| 20260509011150 | 51 | 173 | 0.0 | 0.0 | 0.00 | 0.00 | 0.00 | 96 | 1013.1 |
| 20260509010647 | 51 | 173 | 0.0 | 0.0 | 0.00 | 0.00 | 0.00 | 95 | 1013.2 |
| 20260509010143 | 51 | 173 | 0.0 | 0.0 | 0.00 | 0.00 | 0.00 | 95 | 1013.3 |
| 20260509005641 | 51 | 173 | 0.0 | 0.0 | 0.00 | 0.00 | 0.00 | 95 | 1013.3 |
| 20260509005137 | 51 | 173 | 0.0 | 0.0 | 0.00 | 0.00 | 0.00 | 95 | 1013.3 |
| 20260509004633 | 51 | 173 | 0.0 | 0.0 | 0.00 | 0.00 | 0.00 | 95 | 1013.4 |
| 20260509004130 | 51 | 173 | 0.0 | 0.0 | 0.00 | 0.00 | 0.00 | 95 | 1013.3 |
| 20260509003629 | 51 | 173 | 0.0 | 0.0 | 0.00 | 0.00 | 0.00 | 95 | 1013.4 |
| 20260509003126 | 51 | 173 | 0.0 | 0.0 | 0.00 | 0.00 | 0.00 | 95 | 1013.3 |
| 20260509002623 | 51 | 173 | 0.0 | 0.0 | 0.00 | 0.00 | 0.00 | 95 | 1013.3 |
| 20260509002120 | 51 | 173 | 0.0 | 0.0 | 0.00 | 0.00 | 0.00 | 95 | 1013.4 |
| 20260509001618 | 51 | 173 | 0.0 | 0.0 | 0.00 | 0.00 | 0.00 | 95 | 1013.5 |
| 20260509001113 | 51 | 173 | 0.0 | 0.0 | 0.00 | 0.00 | 0.00 | 95 | 1013.5 |
| 20260509000612 | 51 | 173 | 0.0 | 0.0 | 0.00 | 0.00 | 0.00 | 95 | 1013.4 |
| 20260509000108 | 51 | 173 | 0.0 | 0.0 | 0.00 | 0.00 | 0.00 | 95 | 1013.5 |
| 20260508235606 | 51 | 173 | 0.0 | 0.0 | 0.00 | 0.00 | 0.00 | 95 | 1013.7 |
| 20260508235102 | 51 | 173 | 0.0 | 0.0 | 0.00 | 0.00 | 0.00 | 95 | 1013.7 |
| 20260508234600 | 52 | 173 | 0.0 | 0.0 | 0.00 | 0.00 | 0.00 | 95 | 1013.6 |
| 20260508234056 | 52 | 173 | 0.0 | 0.0 | 0.00 | 0.00 | 0.00 | 94 | 1013.5 |
| 20260508233555 | 52 | 173 | 0.0 | 0.0 | 0.00 | 0.00 | 0.00 | 94 | 1013.7 |
| 20260508233052 | 52 | 173 | 0.0 | 0.0 | 0.00 | 0.00 | 0.00 | 94 | 1013.6 |
| 20260508232549 | 52 | 173 | 0.0 | 0.0 | 0.00 | 0.00 | 0.00 | 94 | 1013.6 |
| 20260508232046 | 52 | 173 | 0.0 | 0.0 | 0.00 | 0.00 | 0.00 | 94 | 1013.6 |
| 20260508231544 | 52 | 173 | 0.0 | 0.0 | 0.00 | 0.00 | 0.00 | 94 | 1013.8 |
| 20260508231041 | 52 | 173 | 0.0 | 0.0 | 0.00 | 0.00 | 0.00 | 94 | 1013.7 |
| 20260508230537 | 52 | 173 | 0.0 | 0.0 | 0.00 | 0.00 | 0.00 | 94 | 1013.4 |
| 20260508230034 | 53 | 173 | 0.0 | 0.0 | 0.00 | 0.00 | 0.00 | 94 | 1013.6 |
| 20260508225531 | 53 | 173 | 0.0 | 0.0 | 0.00 | 0.00 | 0.00 | 94 | 1013.6 |
| 20260508225028 | 53 | 173 | 0.0 | 0.0 | 0.00 | 0.00 | 0.00 | 94 | 1013.5 |
| 20260508224526 | 53 | 173 | 0.0 | 0.0 | 0.00 | 0.00 | 0.00 | 93 | 1013.9 |
| 20260508224023 | 53 | 173 | 0.0 | 0.0 | 0.00 | 0.00 | 0.00 | 94 | 1013.8 |
| 20260508223521 | 53 | 173 | 0.0 | 0.0 | 0.00 | 0.00 | 0.00 | 93 | 1014.0 |
| 20260508223018 | 53 | 173 | 0.0 | 0.0 | 0.00 | 0.00 | 0.00 | 93 | 1014.1 |
| 20260508222515 | 53 | 173 | 0.0 | 0.0 | 0.00 | 0.00 | 0.00 | 93 | 1014.0 |
| 20260508222012 | 53 | 173 | 0.0 | 0.0 | 0.00 | 0.00 | 0.00 | 93 | 1014.0 |
| 20260508221508 | 53 | 173 | 0.0 | 0.0 | 0.00 | 0.00 | 0.00 | 93 | 1014.4 |
| 20260508221004 | 53 | 173 | 0.0 | 0.0 | 0.00 | 0.00 | 0.00 | 93 | 1014.2 |
| 20260508220501 | 53 | 173 | 0.0 | 0.0 | 0.00 | 0.00 | 0.00 | 92 | 1014.0 |
| 20260508215956 | 54 | 173 | 0.0 | 0.0 | 0.00 | 0.00 | 0.00 | 92 | 1014.2 |
| 20260508215454 | 54 | 173 | 0.0 | 0.0 | 0.00 | 0.00 | 0.00 | 92 | 1014.2 |
| 20260508214950 | 54 | 173 | 0.0 | 0.0 | 0.00 | 0.00 | 0.00 | 92 | 1014.3 |
| 20260508214448 | 54 | 173 | 0.0 | 0.0 | 0.00 | 0.00 | 0.00 | 92 | 1014.2 |
| 20260508213944 | 54 | 173 | 0.0 | 0.0 | 0.00 | 0.00 | 0.00 | 92 | 1014.5 |
| 20260508213442 | 54 | 173 | 0.0 | 0.0 | 0.00 | 0.00 | 0.00 | 91 | 1014.6 |
| 20260508212937 | 54 | 173 | 0.0 | 0.0 | 0.00 | 0.00 | 0.00 | 91 | 1014.6 |
| 20260508212434 | 55 | 173 | 0.0 | 0.0 | 0.00 | 0.00 | 0.00 | 91 | 1014.7 |
| 20260508211930 | 54 | 173 | 0.0 | 0.0 | 0.00 | 0.00 | 0.00 | 91 | 1014.7 |
| 20260508211426 | 55 | 173 | 0.0 | 0.0 | 0.00 | 0.00 | 0.00 | 91 | 1014.8 |
| 20260508210923 | 55 | 173 | 0.0 | 0.0 | 0.00 | 0.00 | 0.00 | 90 | 1014.8 |
| 20260508210420 | 55 | 173 | 0.0 | 0.0 | 0.00 | 0.00 | 0.00 | 90 | 1014.9 |
| 20260508205916 | 55 | 173 | 0.0 | 0.0 | 0.00 | 0.00 | 0.00 | 90 | 1014.9 |
| 20260508205413 | 55 | 173 | 0.0 | 0.0 | 0.00 | 0.00 | 0.00 | 90 | 1014.8 |
| 20260508204909 | 56 | 173 | 0.0 | 0.0 | 0.00 | 0.00 | 0.00 | 89 | 1014.7 |
| 20260508204407 | 56 | 173 | 0.0 | 0.0 | 0.00 | 0.00 | 0.00 | 89 | 1014.7 |
| 20260508203902 | 56 | 173 | 0.0 | 0.0 | 0.00 | 0.00 | 0.00 | 89 | 1015.0 |
| 20260508203358 | 56 | 173 | 0.0 | 0.0 | 0.00 | 0.00 | 0.00 | 89 | 1014.8 |
| 20260508202854 | 56 | 173 | 0.0 | 0.0 | 0.00 | 0.00 | 0.00 | 88 | 1015.0 |
| 20260508202352 | 56 | 173 | 0.0 | 0.0 | 0.00 | 0.00 | 0.00 | 88 | 1015.0 |
| 20260508201849 | 57 | 173 | 0.0 | 0.0 | 0.00 | 0.00 | 0.00 | 88 | 1015.2 |
| 20260508201346 | 57 | 173 | 0.0 | 0.0 | 0.00 | 0.00 | 0.00 | 88 | 1014.9 |
| 20260508200842 | 57 | 173 | 0.0 | 0.0 | 0.00 | 0.00 | 0.00 | 87 | 1015.0 |
| 20260508200339 | 57 | 173 | 0.0 | 0.0 | 0.00 | 0.00 | 0.00 | 87 | 1015.2 |
| 20260508195834 | 57 | 173 | 0.0 | 0.0 | 0.00 | 0.00 | 0.00 | 87 | 1014.8 |
| 20260508195331 | 58 | 173 | 0.0 | 0.0 | 0.00 | 0.00 | 0.00 | 87 | 1015.0 |
| 20260508194828 | 58 | 173 | 0.0 | 0.0 | 0.00 | 0.00 | 0.00 | 87 | 1015.1 |
| 20260508194325 | 58 | 173 | 0.0 | 0.0 | 0.00 | 0.00 | 0.00 | 87 | 1015.2 |
| 20260508193822 | 58 | 173 | 0.0 | 0.0 | 0.00 | 0.00 | 0.00 | 87 | 1015.3 |
| 20260508193319 | 58 | 173 | 0.0 | 0.0 | 0.00 | 0.00 | 0.00 | 87 | 1015.1 |
| 20260508192815 | 58 | 173 | 0.0 | 0.0 | 0.00 | 0.00 | 0.00 | 87 | 1015.2 |
| 20260508192312 | 58 | 173 | 0.0 | 1.0 | 0.00 | 0.00 | 0.00 | 87 | 1015.3 |
| 20260508191809 | 58 | 173 | 0.0 | 0.0 | 0.00 | 0.00 | 0.00 | 87 | 1015.3 |
| 20260508191306 | 58 | 173 | 0.0 | 0.0 | 0.00 | 0.00 | 0.00 | 87 | 1015.1 |
| 20260508190804 | 58 | 173 | 0.0 | 0.0 | 0.00 | 0.00 | 0.00 | 87 | 1015.1 |
| 20260508190259 | 58 | 173 | 0.0 | 0.0 | 0.00 | 0.00 | 0.00 | 87 | 1015.2 |
| 20260508185756 | 58 | 173 | 0.0 | 0.0 | 0.00 | 0.00 | 0.00 | 87 | 1015.1 |
| 20260508185254 | 58 | 173 | 0.0 | 0.0 | 0.00 | 0.00 | 0.00 | 87 | 1015.4 |
| 20260508184750 | 58 | 173 | 0.0 | 0.0 | 0.00 | 0.00 | 0.00 | 87 | 1015.3 |
| 20260508184248 | 58 | 173 | 0.0 | 0.0 | 0.00 | 0.00 | 0.00 | 87 | 1015.3 |
| 20260508183745 | 58 | 173 | 0.0 | 0.0 | 0.00 | 0.00 | 0.00 | 87 | 1015.6 |
| 20260508183241 | 59 | 173 | 0.0 | 0.0 | 0.00 | 0.00 | 0.00 | 87 | 1015.2 |
| 20260508182737 | 59 | 173 | 0.0 | 0.0 | 0.00 | 0.00 | 0.00 | 86 | 1015.5 |
| 20260508182234 | 59 | 174 | 0.0 | 1.0 | 0.00 | 0.00 | 0.00 | 86 | 1015.5 |
| 20260508181730 | 59 | 173 | 1.0 | 1.0 | 0.00 | 0.00 | 0.00 | 86 | 1015.2 |
| 20260508181227 | 59 | 173 | 0.0 | 0.0 | 0.00 | 0.00 | 0.00 | 86 | 1015.3 |
| 20260508180723 | 59 | 174 | 0.0 | 0.0 | 0.00 | 0.00 | 0.00 | 86 | 1015.5 |
| 20260508180220 | 59 | 173 | 0.0 | 0.0 | 0.00 | 0.00 | 0.00 | 85 | 1015.4 |
| 20260508175717 | 59 | 174 | 0.0 | 0.0 | 0.00 | 0.00 | 0.00 | 85 | 1015.8 |
| 20260508175214 | 59 | 174 | 0.0 | 0.0 | 0.00 | 0.00 | 0.00 | 85 | 1015.5 |
| 20260508174712 | 60 | 174 | 2.0 | 2.0 | 0.00 | 0.00 | 0.00 | 85 | 1015.7 |
| 20260508174208 | 60 | 174 | 0.0 | 0.0 | 0.00 | 0.00 | 0.00 | 84 | 1015.7 |